createdAt,value
2022-07-31T00:00:27.288Z,101371.56
2022-07-31T00:02:55.496Z,101364.34
2022-07-31T00:05:24.283Z,101371.88
2022-07-31T00:07:53.829Z,101364.03
2022-07-31T00:10:21.846Z,101371.31
2022-07-31T00:12:51.455Z,101367.75
2022-07-31T00:15:19.827Z,101373.06
2022-07-31T00:17:48.187Z,101361.53
2022-07-31T00:20:18.205Z,101364.31
2022-07-31T00:22:47.998Z,101361.63
2022-07-31T00:25:17.673Z,101358.16
2022-07-31T00:27:46.118Z,101357.41
2022-07-31T00:30:16.971Z,101359.94
2022-07-31T00:32:45.316Z,101359.09
2022-07-31T00:35:14.815Z,101366.06
2022-07-31T00:37:44.349Z,101365.44
2022-07-31T00:40:15.672Z,101360.69
2022-07-31T00:42:44.358Z,101350.28
2022-07-31T00:45:13.262Z,101355.75
2022-07-31T00:47:43.269Z,101358.59
2022-07-31T00:50:12.481Z,101354.09
2022-07-31T00:52:41.520Z,101341.72
2022-07-31T00:55:10.437Z,101341.78
2022-07-31T00:57:38.599Z,101335.03
2022-07-31T01:00:08.004Z,101335.72
2022-07-31T01:02:38.372Z,101331.22
2022-07-31T01:05:18.866Z,101326.00
2022-07-31T01:07:47.232Z,101332.19
2022-07-31T01:10:20.524Z,101329.47
2022-07-31T01:12:54.410Z,101334.44
2022-07-31T01:15:24.194Z,101328.28
2022-07-31T01:17:54.011Z,101332.16
2022-07-31T01:20:23.863Z,101328.72
2022-07-31T01:23:18.799Z,101331.50
2022-07-31T01:25:59.988Z,101336.00
2022-07-31T01:28:57.648Z,101339.81
2022-07-31T01:31:28.809Z,101341.06
2022-07-31T01:34:03.797Z,101335.75
2022-07-31T01:36:35.402Z,101337.56
2022-07-31T01:39:04.846Z,101349.44
2022-07-31T01:41:37.317Z,101339.91
2022-07-31T01:44:07.953Z,101340.09
2022-07-31T01:46:44.459Z,101340.09
2022-07-31T01:49:14.494Z,101341.97
2022-07-31T01:51:45.241Z,101342.22
2022-07-31T01:54:13.936Z,101338.56
2022-07-31T01:56:43.251Z,101344.97
2022-07-31T01:59:22.988Z,101336.16
2022-07-31T02:01:54.426Z,101331.81
2022-07-31T02:04:23.442Z,101332.81
2022-07-31T02:06:52.553Z,101324.75
2022-07-31T02:09:23.312Z,101323.91
2022-07-31T02:12:05.368Z,101325.03
2022-07-31T02:14:40.593Z,101332.28
2022-07-31T02:17:09.633Z,101333.22
2022-07-31T02:19:40.286Z,101325.16
2022-07-31T02:22:29.145Z,101319.91
2022-07-31T02:24:57.272Z,101327.22
2022-07-31T02:27:56.902Z,101328.28
2022-07-31T02:30:17.782Z,101325.59
2022-07-31T02:32:47.810Z,101328.28
2022-07-31T02:35:18.791Z,101328.22
2022-07-31T02:37:49.841Z,101328.66
2022-07-31T02:40:18.763Z,101319.13
2022-07-31T02:42:47.988Z,101327.53
2022-07-31T02:45:17.729Z,101320.25
2022-07-31T02:47:45.965Z,101313.41
2022-07-31T02:50:14.311Z,101308.69
2022-07-31T02:52:48.705Z,101304.66
2022-07-31T02:55:18.435Z,101306.44
2022-07-31T02:57:48.159Z,101309.28
2022-07-31T03:00:23.731Z,101301.38
2022-07-31T03:02:51.949Z,101306.88
2022-07-31T03:05:20.145Z,101304.19
2022-07-31T03:07:48.479Z,101302.19
2022-07-31T03:10:16.746Z,101311.19
2022-07-31T03:12:48.794Z,101308.03
2022-07-31T03:15:21.112Z,101309.78
2022-07-31T03:17:51.233Z,101315.03
2022-07-31T03:20:19.735Z,101316.88
2022-07-31T03:22:48.061Z,101314.13
2022-07-31T03:25:21.744Z,101308.72
2022-07-31T03:27:55.613Z,101306.53
2022-07-31T03:30:26.215Z,101299.31
2022-07-31T03:32:54.891Z,101308.59
2022-07-31T03:35:23.954Z,101307.28
2022-07-31T03:37:53.139Z,101310.31
2022-07-31T03:40:21.333Z,101301.72
2022-07-31T03:42:50.914Z,101303.53
2022-07-31T03:45:21.726Z,101301.03
2022-07-31T03:47:51.479Z,101310.78
2022-07-31T03:50:19.832Z,101303.28
2022-07-31T03:52:48.630Z,101309.19
2022-07-31T03:55:17.255Z,101309.03
2022-07-31T03:57:47.599Z,101302.06
2022-07-31T04:00:18.060Z,101303.78
2022-07-31T04:02:46.803Z,101302.22
2022-07-31T04:05:16.287Z,101303.75
2022-07-31T04:07:44.305Z,101306.97
2022-07-31T04:10:12.783Z,101293.66
2022-07-31T04:12:41.088Z,101311.50
2022-07-31T04:15:09.718Z,101299.09
2022-07-31T04:17:37.802Z,101312.91
2022-07-31T04:20:07.624Z,101314.50
2022-07-31T04:22:37.021Z,101316.97
2022-07-31T04:25:08.330Z,101316.06
2022-07-31T04:27:48.546Z,101319.19
2022-07-31T04:30:17.596Z,101304.63
2022-07-31T04:32:45.674Z,101313.63
2022-07-31T04:35:14.233Z,101308.09
2022-07-31T04:37:48.710Z,101310.56
2022-07-31T04:40:17.070Z,101307.81
2022-07-31T04:42:45.117Z,101310.16
2022-07-31T04:45:13.254Z,101322.81
2022-07-31T04:47:41.294Z,101323.28
2022-07-31T04:50:10.275Z,101323.53
2022-07-31T04:52:38.379Z,101319.28
2022-07-31T04:55:08.540Z,101317.78
2022-07-31T04:57:36.553Z,101321.88
2022-07-31T05:00:06.556Z,101323.19
2022-07-31T05:02:34.568Z,101313.88
2022-07-31T05:05:02.865Z,101316.28
2022-07-31T05:07:30.949Z,101315.19
2022-07-31T05:09:59.490Z,101322.97
2022-07-31T05:12:28.918Z,101314.41
2022-07-31T05:14:56.962Z,101314.47
2022-07-31T05:17:25.009Z,101313.34
2022-07-31T05:19:53.215Z,101315.84
2022-07-31T05:22:21.299Z,101302.97
2022-07-31T05:24:49.319Z,101296.78
2022-07-31T05:27:17.352Z,101302.03
2022-07-31T05:29:46.823Z,101289.19
2022-07-31T05:32:15.332Z,101290.50
2022-07-31T05:34:43.542Z,101300.09
2022-07-31T05:37:11.588Z,101293.50
2022-07-31T05:39:39.622Z,101291.13
2022-07-31T05:42:07.920Z,101292.03
2022-07-31T05:44:36.041Z,101300.09
2022-07-31T05:47:08.040Z,101296.28
2022-07-31T05:49:36.108Z,101293.47
2022-07-31T05:52:04.743Z,101296.84
2022-07-31T05:54:33.604Z,101295.09
2022-07-31T05:57:01.746Z,101292.19
2022-07-31T05:59:29.779Z,101294.56
2022-07-31T06:01:57.878Z,101296.16
2022-07-31T06:04:27.578Z,101304.09
2022-07-31T06:06:55.788Z,101301.41
2022-07-31T06:09:23.868Z,101300.13
2022-07-31T06:11:52.054Z,101303.53
2022-07-31T06:14:20.120Z,101306.06
2022-07-31T06:16:50.180Z,101304.50
2022-07-31T06:19:19.730Z,101303.94
2022-07-31T06:22:03.348Z,101251.97
2022-07-31T06:24:33.541Z,101302.13
2022-07-31T06:27:02.757Z,101293.69
2022-07-31T06:29:41.618Z,101309.69
2022-07-31T06:32:10.349Z,101294.97
2022-07-31T06:34:38.404Z,101297.88
2022-07-31T06:37:06.491Z,101294.34
2022-07-31T06:39:55.304Z,101289.25
2022-07-31T06:42:25.836Z,101293.53
2022-07-31T06:44:54.361Z,101284.66
2022-07-31T06:47:24.274Z,101292.31
2022-07-31T06:49:52.492Z,101292.66
2022-07-31T06:52:20.867Z,101291.34
2022-07-31T06:54:50.402Z,101285.47
2022-07-31T06:57:18.432Z,101285.13
2022-07-31T06:59:46.629Z,101283.00
2022-07-31T07:02:14.669Z,101286.50
2022-07-31T07:05:05.328Z,101283.50
2022-07-31T07:07:31.471Z,101282.28
2022-07-31T07:10:01.656Z,101275.03
2022-07-31T07:12:29.732Z,101276.69
2022-07-31T07:14:58.050Z,101279.03
2022-07-31T07:17:29.202Z,101277.38
2022-07-31T07:19:58.063Z,101278.28
2022-07-31T07:22:31.293Z,101274.78
2022-07-31T07:25:02.106Z,101283.34
2022-07-31T07:27:30.310Z,101266.69
2022-07-31T07:29:58.507Z,101266.50
2022-07-31T07:32:26.544Z,101259.06
2022-07-31T07:34:59.387Z,101266.59
2022-07-31T07:37:29.723Z,101257.59
2022-07-31T07:39:57.854Z,101265.34
2022-07-31T07:42:33.149Z,101262.34
2022-07-31T07:45:02.246Z,101263.97
2022-07-31T07:47:54.128Z,101259.34
2022-07-31T07:50:27.163Z,101255.81
2022-07-31T07:52:57.897Z,101257.47
2022-07-31T07:55:26.373Z,101258.91
2022-07-31T07:57:55.809Z,101252.75
2022-07-31T08:00:24.705Z,101252.75
2022-07-31T08:03:46.508Z,101248.44
2022-07-31T08:05:42.488Z,101252.72
2022-07-31T08:08:10.585Z,101257.91
2022-07-31T08:10:39.337Z,101255.66
2022-07-31T08:13:08.700Z,101253.34
2022-07-31T08:15:36.728Z,101251.38
2022-07-31T08:18:04.873Z,101254.03
2022-07-31T08:20:32.926Z,101249.63
2022-07-31T08:23:01.002Z,101252.81
2022-07-31T08:25:31.796Z,101261.31
2022-07-31T08:28:00.192Z,101253.13
2022-07-31T08:30:31.061Z,101255.19
2022-07-31T08:32:59.309Z,101255.25
2022-07-31T08:35:29.379Z,101252.34
2022-07-31T08:38:03.395Z,101257.56
2022-07-31T08:40:34.769Z,101253.63
2022-07-31T08:43:31.096Z,101252.13
2022-07-31T08:46:02.489Z,101256.28
2022-07-31T08:48:33.648Z,101253.97
2022-07-31T08:51:04.442Z,101251.34
2022-07-31T08:53:36.015Z,101255.84
2022-07-31T08:56:05.045Z,101249.13
2022-07-31T08:58:37.186Z,101251.75
2022-07-31T09:01:09.066Z,101247.63
2022-07-31T09:03:37.158Z,101245.44
2022-07-31T09:06:06.166Z,101255.31
2022-07-31T09:08:34.858Z,101249.97
2022-07-31T09:11:05.822Z,101246.09
2022-07-31T09:13:35.525Z,101244.44
2022-07-31T09:16:03.835Z,101238.66
2022-07-31T09:18:33.915Z,101239.00
2022-07-31T09:21:03.995Z,101238.44
2022-07-31T09:23:33.259Z,101238.69
2022-07-31T09:26:04.345Z,101236.41
2022-07-31T09:28:34.704Z,101236.72
2022-07-31T09:31:03.148Z,101225.22
2022-07-31T09:33:32.874Z,101229.34
2022-07-31T09:36:01.343Z,101226.41
2022-07-31T09:38:34.403Z,101220.88
2022-07-31T09:41:55.745Z,101208.41
2022-07-31T09:44:02.820Z,101212.94
2022-07-31T09:46:42.511Z,101216.44
2022-07-31T09:49:12.342Z,101218.81
2022-07-31T09:51:41.504Z,101215.31
2022-07-31T09:54:20.237Z,101214.00
2022-07-31T09:56:49.785Z,101211.50
2022-07-31T09:59:18.285Z,101202.22
2022-07-31T10:01:49.543Z,101214.25
2022-07-31T10:04:20.182Z,101212.53
2022-07-31T10:06:49.342Z,101201.72
2022-07-31T10:09:20.003Z,101198.94
2022-07-31T10:11:51.037Z,101192.88
2022-07-31T10:14:23.526Z,101190.94
2022-07-31T10:16:55.769Z,101187.19
2022-07-31T10:19:28.425Z,101188.56
2022-07-31T10:21:59.668Z,101188.34
2022-07-31T10:24:29.770Z,101190.94
2022-07-31T10:27:01.325Z,101188.94
2022-07-31T10:29:32.189Z,101188.56
2022-07-31T10:32:01.819Z,101185.13
2022-07-31T10:34:32.174Z,101182.91
2022-07-31T10:37:11.129Z,101173.44
2022-07-31T10:39:48.230Z,101165.88
2022-07-31T10:42:26.881Z,101166.16
2022-07-31T10:45:04.023Z,101156.31
2022-07-31T10:47:32.382Z,101148.50
2022-07-31T10:50:01.817Z,101150.06
2022-07-31T10:52:31.083Z,101158.31
2022-07-31T10:55:01.629Z,101151.81
2022-07-31T10:57:31.441Z,101151.03
2022-07-31T11:00:11.839Z,101141.00
2022-07-31T11:02:39.929Z,101143.41
2022-07-31T11:05:11.183Z,101145.06
2022-07-31T11:07:39.272Z,101142.50
2022-07-31T11:10:16.616Z,101135.25
2022-07-31T11:12:55.742Z,101132.06
2022-07-31T11:15:26.597Z,101122.69
2022-07-31T11:18:20.993Z,101123.50
2022-07-31T11:20:47.930Z,101120.91
2022-07-31T11:23:17.901Z,101114.09
2022-07-31T11:25:47.313Z,101113.13
2022-07-31T11:28:18.922Z,101121.94
2022-07-31T11:30:52.327Z,101106.88
2022-07-31T11:33:41.614Z,101102.78
2022-07-31T11:36:14.435Z,101105.94
2022-07-31T11:38:46.821Z,101102.50
2022-07-31T11:41:15.657Z,101100.91
2022-07-31T11:43:47.638Z,101079.72
2022-07-31T11:46:20.557Z,101092.25
2022-07-31T11:48:48.674Z,101088.09
2022-07-31T11:51:21.836Z,101082.59
2022-07-31T11:53:56.674Z,101093.13
2022-07-31T11:56:26.826Z,101068.63
2022-07-31T11:58:56.814Z,101088.03
2022-07-31T12:01:27.164Z,101083.00
2022-07-31T12:03:56.972Z,101086.78
2022-07-31T12:06:26.422Z,101071.88
2022-07-31T12:08:54.912Z,101081.72
2022-07-31T12:11:23.213Z,101065.00
2022-07-31T12:13:51.499Z,101073.22
2022-07-31T12:16:19.712Z,101058.81
2022-07-31T12:18:58.742Z,101054.44
2022-07-31T12:21:34.095Z,101060.31
2022-07-31T12:24:02.644Z,101054.00
2022-07-31T12:26:32.101Z,101052.81
2022-07-31T12:29:02.117Z,101040.34
2022-07-31T12:31:32.399Z,101028.69
2022-07-31T12:34:00.433Z,101021.63
2022-07-31T12:36:28.517Z,101020.81
2022-07-31T12:39:02.295Z,101019.59
2022-07-31T12:41:31.070Z,101011.59
2022-07-31T12:44:10.476Z,101011.81
2022-07-31T12:46:41.559Z,101009.06
2022-07-31T12:49:10.403Z,101004.88
2022-07-31T12:51:45.330Z,101010.03
2022-07-31T12:54:18.346Z,101000.00
2022-07-31T12:56:47.645Z,100991.09
2022-07-31T12:59:17.633Z,101002.63
2022-07-31T13:01:45.757Z,101003.66
2022-07-31T13:04:18.192Z,100997.34
2022-07-31T13:06:51.244Z,100988.16
2022-07-31T13:09:21.211Z,100986.44
2022-07-31T13:11:51.299Z,100982.13
2022-07-31T13:14:23.504Z,100985.94
2022-07-31T13:16:53.175Z,100982.63
2022-07-31T13:19:21.249Z,100974.38
2022-07-31T13:21:50.395Z,100974.47
2022-07-31T13:24:21.070Z,100973.59
2022-07-31T13:26:49.512Z,100972.84
2022-07-31T13:29:17.620Z,100970.53
2022-07-31T13:31:46.694Z,100959.88
2022-07-31T13:34:14.919Z,100961.19
2022-07-31T13:36:43.116Z,100966.09
2022-07-31T13:39:11.760Z,100957.06
2022-07-31T13:41:41.881Z,100956.78
2022-07-31T13:44:10.269Z,100957.25
2022-07-31T13:46:38.357Z,100965.59
2022-07-31T13:49:08.926Z,100945.91
2022-07-31T13:51:37.858Z,100947.13
2022-07-31T13:54:06.603Z,100946.84
2022-07-31T13:56:41.857Z,100948.41
2022-07-31T13:59:14.312Z,100947.56
2022-07-31T14:02:04.101Z,100951.56
2022-07-31T14:04:33.007Z,100946.84
2022-07-31T14:07:08.090Z,100946.25
2022-07-31T14:09:37.641Z,100936.78
2022-07-31T14:12:06.668Z,100931.59
2022-07-31T14:14:36.634Z,100936.06
2022-07-31T14:17:04.718Z,100939.19
2022-07-31T14:19:41.864Z,100934.19
2022-07-31T14:22:14.245Z,100943.53
2022-07-31T14:24:49.915Z,100943.75
2022-07-31T14:27:19.547Z,100932.53
2022-07-31T14:29:49.372Z,100937.94
2022-07-31T14:32:19.131Z,100928.16
2022-07-31T14:34:47.306Z,100928.41
2022-07-31T14:37:15.505Z,100929.19
2022-07-31T14:39:43.644Z,100928.69
2022-07-31T14:42:12.621Z,100929.94
2022-07-31T14:44:42.098Z,100929.53
2022-07-31T14:47:12.723Z,100939.19
2022-07-31T14:50:07.222Z,100935.84
2022-07-31T14:52:30.155Z,100938.53
2022-07-31T14:54:59.681Z,100937.53
2022-07-31T14:57:27.950Z,100936.13
2022-07-31T14:59:56.184Z,100949.94
2022-07-31T15:02:26.133Z,100948.78
2022-07-31T15:04:54.432Z,100965.13
2022-07-31T15:07:45.434Z,100956.97
2022-07-31T15:10:20.604Z,100959.81
2022-07-31T15:12:48.716Z,100960.16
2022-07-31T15:15:16.811Z,100967.25
2022-07-31T15:17:46.179Z,100973.00
2022-07-31T15:20:15.173Z,100970.72
2022-07-31T15:22:43.228Z,100979.78
2022-07-31T15:25:12.573Z,100984.28
2022-07-31T15:27:40.624Z,100989.09
2022-07-31T15:30:09.951Z,100979.22
2022-07-31T15:32:39.496Z,100987.81
2022-07-31T15:35:12.484Z,100988.84
2022-07-31T15:37:42.342Z,100985.16
2022-07-31T15:40:12.873Z,100984.69
2022-07-31T15:42:43.081Z,100989.59
2022-07-31T15:45:13.003Z,100987.38
2022-07-31T15:47:42.232Z,100990.63
2022-07-31T15:50:14.635Z,100985.63
2022-07-31T15:52:42.760Z,100979.44
2022-07-31T15:55:11.528Z,100974.53
2022-07-31T15:57:39.787Z,100986.59
2022-07-31T16:00:10.520Z,100977.28
2022-07-31T16:02:39.243Z,100979.25
2022-07-31T16:05:35.838Z,100969.47
2022-07-31T16:08:32.920Z,100964.09
2022-07-31T16:10:52.618Z,100965.91
2022-07-31T16:13:23.029Z,100969.72
2022-07-31T16:15:51.157Z,100961.59
2022-07-31T16:18:19.568Z,100968.34
2022-07-31T16:20:49.145Z,100957.66
2022-07-31T16:23:17.199Z,100959.41
2022-07-31T16:25:45.265Z,100966.88
2022-07-31T16:28:13.387Z,100960.69
2022-07-31T16:30:42.318Z,100963.34
2022-07-31T16:33:10.390Z,100960.13
2022-07-31T16:35:38.575Z,100952.75
2022-07-31T16:38:08.321Z,100953.22
2022-07-31T16:40:36.496Z,100952.03
2022-07-31T16:43:48.148Z,100944.03
2022-07-31T16:45:54.839Z,100939.72
2022-07-31T16:48:23.805Z,100943.94
2022-07-31T16:50:54.466Z,100943.84
2022-07-31T16:54:11.366Z,100943.94
2022-07-31T16:56:13.869Z,100941.84
2022-07-31T16:58:42.063Z,100940.09
2022-07-31T17:01:56.718Z,100939.94
2022-07-31T17:04:01.035Z,100935.13
2022-07-31T17:06:34.285Z,100931.44
2022-07-31T17:09:16.399Z,100935.75
2022-07-31T17:11:48.497Z,100944.97
2022-07-31T17:14:17.274Z,100950.91
2022-07-31T17:16:48.077Z,100941.94
2022-07-31T17:19:42.363Z,100946.72
2022-07-31T17:22:07.973Z,100951.13
2022-07-31T17:24:38.194Z,100942.47
2022-07-31T17:27:08.512Z,100945.06
2022-07-31T17:29:37.915Z,100934.78
2022-07-31T17:32:06.739Z,100934.34
2022-07-31T17:34:35.893Z,100936.16
2022-07-31T17:37:04.417Z,100920.66
2022-07-31T17:39:32.842Z,100938.22
2022-07-31T17:42:02.818Z,100941.03
2022-07-31T17:44:30.900Z,100938.44
2022-07-31T17:46:59.262Z,100939.63
2022-07-31T17:49:28.242Z,100937.88
2022-07-31T17:51:57.656Z,100938.03
2022-07-31T17:54:28.637Z,100932.84
2022-07-31T17:56:56.742Z,100935.09
2022-07-31T17:59:27.789Z,100943.94
2022-07-31T18:02:00.083Z,100950.72
2022-07-31T18:04:29.521Z,100954.22
2022-07-31T18:06:57.787Z,100937.25
2022-07-31T18:09:26.052Z,100938.03
2022-07-31T18:11:54.953Z,100938.31
2022-07-31T18:14:24.541Z,100944.63
2022-07-31T18:16:55.331Z,100945.81
2022-07-31T18:19:23.657Z,100944.06
2022-07-31T18:21:52.362Z,100954.19
2022-07-31T18:24:21.030Z,100946.56
2022-07-31T18:26:49.333Z,100950.69
2022-07-31T18:31:57.183Z,100947.78
2022-07-31T18:34:25.241Z,100938.03
2022-07-31T18:36:55.086Z,100947.22
2022-07-31T18:39:24.407Z,100940.47
2022-07-31T18:41:52.580Z,100935.06
2022-07-31T18:44:21.987Z,100931.88
2022-07-31T18:46:50.290Z,100933.88
2022-07-31T18:50:58.608Z,100935.53
2022-07-31T18:52:09.563Z,100929.56
2022-07-31T18:54:37.951Z,100927.22
2022-07-31T18:57:06.671Z,100924.50
2022-07-31T18:59:34.968Z,100919.31
2022-07-31T19:02:03.530Z,100920.47
2022-07-31T19:04:33.266Z,100915.16
2022-07-31T19:07:01.416Z,100910.81
2022-07-31T19:09:30.404Z,100907.25
2022-07-31T19:11:58.988Z,100906.38
2022-07-31T19:14:27.288Z,100901.16
2022-07-31T19:16:57.924Z,100906.56
2022-07-31T19:19:26.080Z,100903.19
2022-07-31T19:22:01.251Z,100905.78
2022-07-31T19:24:29.691Z,100895.06
2022-07-31T19:26:57.915Z,100902.50
2022-07-31T19:29:26.011Z,100912.44
2022-07-31T19:31:54.312Z,100897.22
2022-07-31T19:34:27.613Z,100896.50
2022-07-31T19:36:57.061Z,100895.38
2022-07-31T19:39:26.586Z,100894.00
2022-07-31T19:42:11.363Z,100898.16
2022-07-31T19:44:40.518Z,100894.84
2022-07-31T19:47:09.007Z,100899.50
2022-07-31T19:49:38.589Z,100904.91
2022-07-31T19:52:09.490Z,100901.91
2022-07-31T19:54:39.802Z,100902.50
2022-07-31T19:57:07.914Z,100900.00
2022-07-31T19:59:35.971Z,100901.91
2022-07-31T20:02:04.524Z,100904.63
2022-07-31T20:04:32.783Z,100904.41
2022-07-31T20:07:00.850Z,100889.97
2022-07-31T20:09:30.588Z,100891.00
2022-07-31T20:12:00.033Z,100886.50
2022-07-31T20:14:28.106Z,100893.63
2022-07-31T20:16:56.334Z,100894.59
2022-07-31T20:19:24.400Z,100896.31
2022-07-31T20:21:52.559Z,100895.56
2022-07-31T20:24:20.640Z,100894.41
2022-07-31T20:26:48.719Z,100888.91
2022-07-31T20:29:18.186Z,100890.56
2022-07-31T20:31:46.330Z,100878.09
2022-07-31T20:34:15.166Z,100882.25
2022-07-31T20:36:43.454Z,100876.47
2022-07-31T20:39:11.566Z,100869.91
2022-07-31T20:41:39.728Z,100870.97
2022-07-31T20:44:07.831Z,100870.31
2022-07-31T20:46:37.313Z,100874.63
2022-07-31T20:49:05.467Z,100867.00
2022-07-31T20:51:34.805Z,100860.44
2022-07-31T20:54:03.239Z,100870.56
2022-07-31T20:56:32.109Z,100861.00
2022-07-31T20:59:00.207Z,100862.00
2022-07-31T21:01:28.416Z,100856.78
2022-07-31T21:03:57.851Z,100858.69
2022-07-31T21:06:25.900Z,100854.75
2022-07-31T21:08:54.044Z,100855.16
2022-07-31T21:11:22.106Z,100849.75
2022-07-31T21:14:00.032Z,100857.34
2022-07-31T21:16:28.174Z,100855.44
2022-07-31T21:18:57.587Z,100854.84
2022-07-31T21:21:25.700Z,100849.06
2022-07-31T21:23:53.687Z,100849.63
2022-07-31T21:26:22.742Z,100850.78
2022-07-31T21:28:51.358Z,100839.78
2022-07-31T21:31:19.944Z,100841.53
2022-07-31T21:33:48.958Z,100846.53
2022-07-31T21:36:20.399Z,100848.59
2022-07-31T21:38:49.001Z,100851.66
2022-07-31T21:41:17.637Z,100855.44
2022-07-31T21:43:58.204Z,100850.13
2022-07-31T21:46:29.621Z,100862.00
2022-07-31T21:48:58.195Z,100847.78
2022-07-31T21:51:28.404Z,100860.44
2022-07-31T21:53:56.484Z,100852.13
2022-07-31T21:56:24.615Z,100851.28
2022-07-31T21:58:52.865Z,100848.69
2022-07-31T22:01:21.092Z,100844.03
2022-07-31T22:03:49.196Z,100845.78
2022-07-31T22:06:34.725Z,100852.25
2022-07-31T22:09:04.308Z,100838.53
2022-07-31T22:11:32.425Z,100841.13
2022-07-31T22:14:00.513Z,100844.03
2022-07-31T22:16:28.640Z,100849.25
2022-07-31T22:18:58.135Z,100851.09
2022-07-31T22:21:26.414Z,100838.34
2022-07-31T22:23:54.933Z,100838.63
2022-07-31T22:26:25.302Z,100831.38
2022-07-31T22:28:54.595Z,100834.00
2022-07-31T22:31:23.356Z,100833.13
2022-07-31T22:33:52.117Z,100832.75
2022-07-31T22:36:20.896Z,100835.63
2022-07-31T22:38:50.575Z,100841.03
2022-07-31T22:41:18.704Z,100841.03
2022-07-31T22:44:12.690Z,100840.28
2022-07-31T22:46:37.998Z,100848.28
2022-07-31T22:49:08.302Z,100850.03
2022-07-31T22:51:38.617Z,100845.59
2022-07-31T22:54:07.271Z,100845.69
2022-07-31T22:56:35.349Z,100845.88
2022-07-31T22:59:05.114Z,100849.44
2022-07-31T23:01:33.229Z,100851.94
2022-07-31T23:04:01.249Z,100840.38
2022-07-31T23:06:32.322Z,100843.94
2022-07-31T23:09:01.655Z,100855.13
2022-07-31T23:11:29.653Z,100864.78
2022-07-31T23:13:57.662Z,100857.84
2022-07-31T23:16:27.623Z,100855.78
2022-07-31T23:18:55.786Z,100861.41
2022-07-31T23:21:23.943Z,100859.66
2022-07-31T23:23:52.007Z,100862.34
2022-07-31T23:26:21.139Z,100861.28
2022-07-31T23:28:49.462Z,100862.53
2022-07-31T23:31:17.869Z,100856.09
2022-07-31T23:33:48.153Z,100855.34
2022-07-31T23:36:16.662Z,100858.13
2022-07-31T23:38:45.875Z,100853.28
2022-07-31T23:41:14.365Z,100861.00
2022-07-31T23:43:41.909Z,100856.66
2022-07-31T23:46:27.026Z,100849.22
2022-07-31T23:48:57.202Z,100854.63
2022-07-31T23:51:25.472Z,100852.13
2022-07-31T23:53:53.608Z,100851.28
2022-07-31T23:56:21.788Z,100848.47
2022-07-31T23:58:49.825Z,100848.56
